Time;durP1;ratioP1;P1;durP2;ratioP2;P2;SDS_P1;SDS_P2;PMS_P1;PMS_P2;Temp;Humidity;BMP_temperature;BMP_pressure;BME280_temperature;BME280_humidity;BME280_pressure;Samples;Min_cycle;Max_cycle;Signal;HPM_P1;HPM_P2
2024/02/20 00:00:19;;;;;;;0.10;0.10;;;9.10;96.50;;;;;;5078536;28;20498;-82
2024/02/20 00:02:45;;;;;;;0.10;0.10;;;9.00;96.80;;;;;;5084092;28;20042;-82
2024/02/20 00:05:13;;;;;;;0.00;0.00;;;9.00;96.80;;;;;;5082498;28;20291;-83
2024/02/20 00:07:40;;;;;;;0.10;0.10;;;9.00;96.80;;;;;;5082727;28;20027;-82
2024/02/20 00:10:13;;;;;;;0.10;0.10;;;9.10;96.90;;;;;;5078056;28;20032;-82
2024/02/20 00:12:39;;;;;;;0.90;0.90;;;8.90;97.00;;;;;;5083193;28;20031;-81
2024/02/20 00:15:09;;;;;;;0.08;0.08;;;8.80;97.50;;;;;;5080711;28;20047;-81
2024/02/20 00:17:35;;;;;;;0.22;0.22;;;8.70;97.90;;;;;;5083349;28;20024;-81
2024/02/20 00:20:03;;;;;;;0.10;0.10;;;8.50;98.40;;;;;;5082551;28;20038;-81
2024/02/20 00:22:29;;;;;;;0.10;0.10;;;8.40;98.90;;;;;;5084507;28;20036;-81
2024/02/20 00:24:54;;;;;;;0.10;0.10;;;8.20;99.60;;;;;;5082273;28;20028;-81
2024/02/20 00:27:20;;;;;;;0.38;0.38;;;8.20;99.70;;;;;;5089232;28;20388;-81
2024/02/20 00:29:46;;;;;;;0.10;0.10;;;8.10;99.90;;;;;;5085176;28;20059;-81
2024/02/20 00:32:13;;;;;;;0.10;0.10;;;8.10;99.90;;;;;;5085002;28;20056;-81
2024/02/20 00:34:38;;;;;;;0.20;0.20;;;8.00;99.90;;;;;;5082912;28;20043;-82
2024/02/20 00:37:05;;;;;;;0.10;0.10;;;7.80;99.90;;;;;;5080022;28;20035;-81
2024/02/20 00:39:32;;;;;;;1.15;0.50;;;7.80;99.90;;;;;;5079175;28;20031;-81
2024/02/20 00:41:58;;;;;;;0.00;0.00;;;7.70;99.90;;;;;;5087051;28;20061;-81
2024/02/20 00:44:23;;;;;;;0.00;0.00;;;7.60;99.90;;;;;;5084604;28;20040;-82
2024/02/20 00:46:49;;;;;;;5.00;4.63;;;7.60;99.90;;;;;;5082370;28;20024;-80
2024/02/20 00:49:16;;;;;;;0.20;0.20;;;7.70;99.90;;;;;;5074362;28;20139;-80
2024/02/20 00:51:44;;;;;;;0.10;0.10;;;7.60;99.90;;;;;;5083273;28;20020;-79
2024/02/20 00:54:09;;;;;;;0.10;0.10;;;7.50;99.90;;;;;;5082347;28;20032;-81
2024/02/20 00:56:35;;;;;;;0.10;0.10;;;7.60;99.90;;;;;;5079718;28;20051;-80
2024/02/20 00:59:02;;;;;;;0.10;0.10;;;7.70;99.90;;;;;;5079353;28;20035;-81
2024/02/20 01:01:28;;;;;;;0.15;0.15;;;7.70;99.90;;;;;;5078533;28;20093;-80
2024/02/20 01:03:54;;;;;;;0.10;0.10;;;7.80;99.90;;;;;;5085654;28;20025;-80
2024/02/20 01:06:19;;;;;;;0.10;0.10;;;7.80;99.90;;;;;;5079520;28;20079;-81
2024/02/20 01:08:45;;;;;;;0.00;0.00;;;7.90;99.90;;;;;;5085884;28;20039;-81
2024/02/20 01:11:11;;;;;;;0.10;0.10;;;8.00;99.90;;;;;;5079253;28;20028;-81
2024/02/20 01:13:38;;;;;;;0.03;0.03;;;8.00;99.90;;;;;;5076927;28;20074;-82
2024/02/20 01:16:03;;;;;;;;;;;8.00;99.90;;;;;;5081822;28;20296;-82
2024/02/20 01:18:30;;;;;;;0.40;0.40;;;7.90;99.90;;;;;;5080319;28;19908;-80
2024/02/20 01:20:55;;;;;;;0.28;0.28;;;7.90;99.90;;;;;;5082853;28;20039;-80
2024/02/20 01:23:21;;;;;;;0.25;0.25;;;7.90;99.90;;;;;;5079471;28;20032;-80
2024/02/20 01:25:47;;;;;;;0.00;0.00;;;7.90;99.90;;;;;;5076874;28;20111;-80
2024/02/20 01:28:12;;;;;;;0.30;0.30;;;7.90;99.90;;;;;;5085898;28;20032;-80
2024/02/20 01:30:38;;;;;;;0.10;0.10;;;7.90;99.90;;;;;;5078927;28;20024;-80
2024/02/20 01:33:04;;;;;;;0.00;0.00;;;7.90;99.90;;;;;;5074776;28;20028;-81
2024/02/20 01:35:30;;;;;;;0.10;0.10;;;7.80;99.90;;;;;;5077576;28;20027;-80
2024/02/20 01:37:59;;;;;;;0.20;0.20;;;7.80;99.90;;;;;;5083439;28;20143;-80
2024/02/20 01:40:25;;;;;;;0.10;0.10;;;7.70;99.90;;;;;;5077212;28;20033;-81
2024/02/20 01:43:04;;;;;;;0.75;0.75;;;7.70;99.90;;;;;;5074165;28;20047;-80
2024/02/20 01:45:31;;;;;;;0.10;0.10;;;7.80;99.90;;;;;;5081199;28;20096;-82
2024/02/20 01:48:00;;;;;;;0.10;0.10;;;7.70;99.90;;;;;;5080016;28;20088;-81
2024/02/20 01:50:28;;;;;;;0.08;0.08;;;7.50;99.90;;;;;;5074392;28;20063;-80
2024/02/20 01:52:54;;;;;;;0.20;0.20;;;7.50;99.90;;;;;;5080232;28;20025;-81
2024/02/20 01:55:21;;;;;;;0.03;0.03;;;7.30;99.90;;;;;;5084940;28;20031;-81
2024/02/20 01:57:47;;;;;;;0.10;0.10;;;7.20;99.90;;;;;;5081213;28;20039;-80
2024/02/20 02:00:13;;;;;;;2.92;2.72;;;7.10;99.90;;;;;;5083115;28;20034;-81
2024/02/20 02:02:39;;;;;;;0.20;0.20;;;7.00;99.90;;;;;;5067768;28;20032;-81
2024/02/20 02:05:05;;;;;;;0.25;0.25;;;6.90;99.90;;;;;;5078980;28;20033;-81
2024/02/20 02:07:31;;;;;;;0.10;0.10;;;6.90;99.90;;;;;;5083830;28;20040;-80
2024/02/20 02:09:56;;;;;;;0.10;0.10;;;7.00;99.90;;;;;;5079692;28;20036;-80
2024/02/20 02:12:22;;;;;;;0.10;0.10;;;7.10;99.90;;;;;;5078342;28;20052;-80
2024/02/20 02:14:48;;;;;;;0.10;0.10;;;7.10;99.90;;;;;;5086089;28;20020;-82
2024/02/20 02:17:14;;;;;;;0.05;0.05;;;7.10;99.90;;;;;;5087527;28;20047;-82
2024/02/20 02:19:40;;;;;;;0.10;0.10;;;7.20;99.90;;;;;;5085499;28;20115;-81
2024/02/20 02:22:07;;;;;;;0.10;0.10;;;7.10;99.90;;;;;;5087677;28;20114;-83
2024/02/20 02:24:36;;;;;;;0.10;0.10;;;7.10;99.90;;;;;;5080148;28;20286;-83
2024/02/20 02:27:06;;;;;;;0.10;0.10;;;7.10;99.90;;;;;;5083330;28;20043;-82
2024/02/20 02:29:32;;;;;;;0.10;0.10;;;7.10;99.90;;;;;;5086905;28;20098;-82
2024/02/20 02:31:58;;;;;;;0.10;0.10;;;7.10;99.90;;;;;;5086129;28;20059;-83
2024/02/20 02:34:27;;;;;;;0.10;0.10;;;7.10;99.90;;;;;;5084231;28;20037;-82
2024/02/20 02:36:53;;;;;;;0.15;0.15;;;7.20;99.90;;;;;;5086669;28;20306;-80
2024/02/20 02:39:20;;;;;;;0.10;0.10;;;7.30;99.90;;;;;;5078528;28;20059;-81
2024/02/20 02:41:46;;;;;;;;;;;7.50;99.90;;;;;;5087152;28;20032;-80
2024/02/20 02:44:12;;;;;;;0.10;0.10;;;7.60;99.90;;;;;;5080892;28;19915;-81
2024/02/20 02:46:37;;;;;;;0.20;0.20;;;7.80;99.90;;;;;;5087498;28;20036;-80
2024/02/20 02:49:05;;;;;;;0.10;0.10;;;7.80;99.90;;;;;;5084969;28;20028;-80
2024/02/20 02:51:31;;;;;;;0.20;0.20;;;7.80;99.90;;;;;;5087251;28;20036;-80
2024/02/20 02:53:56;;;;;;;0.10;0.10;;;7.80;99.90;;;;;;5081683;28;20035;-79
2024/02/20 02:56:22;;;;;;;0.10;0.10;;;7.90;99.90;;;;;;5087054;28;20052;-80
2024/02/20 02:58:48;;;;;;;0.10;0.10;;;8.00;99.90;;;;;;5082125;28;20064;-80
2024/02/20 03:01:13;;;;;;;0.90;0.35;;;7.90;99.90;;;;;;5081040;28;20026;-79
2024/02/20 03:03:39;;;;;;;2.15;1.00;;;7.90;99.90;;;;;;5087712;28;20054;-80
2024/02/20 03:06:08;;;;;;;0.00;0.00;;;7.90;99.90;;;;;;5088005;28;20035;-80
2024/02/20 03:08:37;;;;;;;0.10;0.10;;;7.90;99.90;;;;;;5100868;28;20557;-81
2024/02/20 03:11:05;;;;;;;0.10;0.10;;;7.90;99.90;;;;;;5083666;28;20028;-81
2024/02/20 03:13:33;;;;;;;0.10;0.10;;;7.90;99.90;;;;;;5080943;28;20381;-81
2024/02/20 03:16:00;;;;;;;0.10;0.10;;;7.90;99.90;;;;;;5088186;28;20151;-81
2024/02/20 03:18:26;;;;;;;0.10;0.10;;;7.90;99.90;;;;;;5088379;28;20712;-80
2024/02/20 03:20:51;;;;;;;0.10;0.10;;;7.90;99.90;;;;;;5079908;28;20668;-80
2024/02/20 03:23:18;;;;;;;0.10;0.10;;;7.90;99.90;;;;;;5081849;28;20043;-82
2024/02/20 03:25:44;;;;;;;0.10;0.10;;;7.80;99.90;;;;;;5086812;28;20024;-82
2024/02/20 03:28:09;;;;;;;2.80;1.00;;;7.80;99.90;;;;;;5083742;28;20096;-82
2024/02/20 03:30:35;;;;;;;0.10;0.10;;;7.90;99.90;;;;;;5084994;28;20081;-83
2024/02/20 03:33:01;;;;;;;0.10;0.10;;;7.80;99.90;;;;;;5078515;28;20036;-82
2024/02/20 03:35:26;;;;;;;0.10;0.10;;;7.90;99.90;;;;;;5083200;28;20027;-82
2024/02/20 03:37:52;;;;;;;0.10;0.10;;;7.90;99.90;;;;;;5079051;28;20038;-82
2024/02/20 03:40:19;;;;;;;0.10;0.10;;;7.80;99.90;;;;;;5080126;28;20406;-83
2024/02/20 03:42:45;;;;;;;0.15;0.15;;;7.90;99.90;;;;;;5084584;28;20100;-80
2024/02/20 03:45:11;;;;;;;0.10;0.10;;;7.80;99.90;;;;;;5087099;28;20618;-80
2024/02/20 03:47:37;;;;;;;0.10;0.10;;;7.90;99.90;;;;;;5084835;28;20021;-79
2024/02/20 03:50:04;;;;;;;0.10;0.10;;;7.80;99.90;;;;;;5085133;28;20024;-80
2024/02/20 03:52:30;;;;;;;0.10;0.10;;;7.90;99.90;;;;;;5082599;28;20047;-80
2024/02/20 03:54:55;;;;;;;0.10;0.10;;;7.90;99.90;;;;;;5085787;28;20025;-79
2024/02/20 03:57:21;;;;;;;0.10;0.10;;;7.90;99.90;;;;;;5080670;28;20682;-80
2024/02/20 03:59:47;;;;;;;0.10;0.10;;;7.90;99.90;;;;;;5084327;28;20088;-80
2024/02/20 04:02:13;;;;;;;0.10;0.10;;;8.00;99.90;;;;;;5083301;28;20020;-81
2024/02/20 04:04:39;;;;;;;0.28;0.28;;;7.90;99.90;;;;;;5086013;28;20092;-80
2024/02/20 04:07:04;;;;;;;0.80;0.60;;;7.90;99.90;;;;;;5086443;28;20039;-80
2024/02/20 04:09:30;;;;;;;0.10;0.10;;;7.90;99.90;;;;;;5084835;28;20020;-80
2024/02/20 04:11:56;;;;;;;0.10;0.10;;;7.80;99.90;;;;;;5070441;28;20797;-81
2024/02/20 04:14:22;;;;;;;0.10;0.10;;;7.90;99.90;;;;;;5083723;28;20024;-80
2024/02/20 04:16:48;;;;;;;0.10;0.10;;;7.90;99.90;;;;;;5086782;28;20035;-81
2024/02/20 04:19:13;;;;;;;0.10;0.10;;;7.90;99.90;;;;;;5086084;28;20035;-80
2024/02/20 04:21:39;;;;;;;0.03;0.03;;;7.80;99.90;;;;;;5079924;28;20024;-80
2024/02/20 04:24:07;;;;;;;0.03;0.03;;;7.90;99.90;;;;;;5082086;28;20062;-81
2024/02/20 04:26:33;;;;;;;0.10;0.10;;;7.90;99.90;;;;;;5080566;28;20035;-80
2024/02/20 04:28:59;;;;;;;0.20;0.20;;;7.80;99.90;;;;;;5086149;28;20028;-80
2024/02/20 04:31:24;;;;;;;0.10;0.10;;;7.80;99.90;;;;;;5079904;28;20040;-81
2024/02/20 04:33:50;;;;;;;0.10;0.10;;;7.70;99.90;;;;;;5088891;28;20038;-81
2024/02/20 04:36:15;;;;;;;0.10;0.10;;;7.80;99.90;;;;;;5081516;28;20626;-81
2024/02/20 04:38:41;;;;;;;0.10;0.10;;;7.90;99.90;;;;;;5086083;28;20727;-81
2024/02/20 04:41:07;;;;;;;0.10;0.10;;;7.90;99.90;;;;;;5076140;28;20492;-80
2024/02/20 04:43:34;;;;;;;0.10;0.10;;;7.90;99.90;;;;;;5075187;28;20028;-81
2024/02/20 04:46:00;;;;;;;0.10;0.10;;;7.90;99.90;;;;;;5085361;28;20142;-81
2024/02/20 04:48:25;;;;;;;0.10;0.10;;;7.90;99.90;;;;;;5089218;28;20095;-81
2024/02/20 04:50:53;;;;;;;0.10;0.10;;;7.80;99.90;;;;;;5082361;28;20035;-80
2024/02/20 04:53:19;;;;;;;0.10;0.10;;;7.80;99.90;;;;;;5083027;28;20012;-79
2024/02/20 04:55:44;;;;;;;0.10;0.10;;;7.80;99.90;;;;;;5084491;28;20055;-79
2024/02/20 04:58:10;;;;;;;0.13;0.13;;;7.70;99.90;;;;;;5081761;28;20028;-79
2024/02/20 05:00:36;;;;;;;0.10;0.10;;;7.80;99.90;;;;;;5086278;28;20028;-81
2024/02/20 05:03:02;;;;;;;0.10;0.10;;;7.80;99.90;;;;;;5086310;28;20057;-81
2024/02/20 05:05:29;;;;;;;0.10;0.10;;;7.80;99.90;;;;;;5081152;28;20024;-81
2024/02/20 05:07:55;;;;;;;0.10;0.10;;;7.80;99.90;;;;;;5079138;28;20028;-82
2024/02/20 05:10:22;;;;;;;0.10;0.10;;;7.70;99.90;;;;;;5069919;28;20025;-81
2024/02/20 05:12:47;;;;;;;0.10;0.10;;;7.80;99.90;;;;;;5069687;28;20071;-81
2024/02/20 05:15:13;;;;;;;0.10;0.10;;;7.80;99.90;;;;;;5086549;28;20047;-81
2024/02/20 05:17:40;;;;;;;0.10;0.10;;;7.70;99.90;;;;;;5076042;28;20036;-81
2024/02/20 05:20:07;;;;;;;0.10;0.10;;;7.70;99.90;;;;;;5084414;28;20151;-81
2024/02/20 05:22:32;;;;;;;0.10;0.10;;;7.70;99.90;;;;;;5085509;28;20574;-81
2024/02/20 05:24:58;;;;;;;0.10;0.10;;;7.80;99.90;;;;;;5085023;28;20028;-80
2024/02/20 05:27:24;;;;;;;0.10;0.10;;;7.80;99.90;;;;;;5086154;28;20067;-82
2024/02/20 05:29:49;;;;;;;0.10;0.10;;;7.80;99.90;;;;;;5080003;28;20025;-81
2024/02/20 05:32:15;;;;;;;0.30;0.30;;;7.80;99.90;;;;;;5072014;28;20602;-80
2024/02/20 05:34:41;;;;;;;0.10;0.10;;;7.80;99.90;;;;;;5085625;28;20814;-80
2024/02/20 05:37:07;;;;;;;0.10;0.10;;;7.70;99.90;;;;;;5086347;28;20067;-80
2024/02/20 05:39:32;;;;;;;0.10;0.10;;;7.60;99.90;;;;;;5077375;28;20111;-80
2024/02/20 05:41:58;;;;;;;0.05;0.05;;;7.50;99.90;;;;;;5088770;28;20106;-80
2024/02/20 05:44:23;;;;;;;0.10;0.10;;;7.60;99.90;;;;;;5080240;28;20032;-81
2024/02/20 05:46:49;;;;;;;0.28;0.28;;;7.60;99.90;;;;;;5083396;28;20039;-78
2024/02/20 05:49:15;;;;;;;0.10;0.10;;;7.70;99.90;;;;;;5080662;28;20600;-78
2024/02/20 05:51:40;;;;;;;0.10;0.10;;;7.60;99.90;;;;;;5088563;28;20522;-78
2024/02/20 05:54:06;;;;;;;0.10;0.10;;;7.50;99.90;;;;;;5087564;28;20483;-78
2024/02/20 05:56:32;;;;;;;0.20;0.20;;;7.60;99.90;;;;;;5083879;28;20044;-80
2024/02/20 05:58:58;;;;;;;0.10;0.10;;;7.60;99.90;;;;;;5091633;28;20047;-80
2024/02/20 06:01:23;;;;;;;0.10;0.10;;;7.50;99.90;;;;;;5088657;28;20059;-79
2024/02/20 06:03:49;;;;;;;0.38;0.35;;;7.50;99.90;;;;;;5088150;28;20032;-82
2024/02/20 06:06:15;;;;;;;0.20;0.20;;;7.40;99.90;;;;;;5088144;28;20059;-81
2024/02/20 06:08:43;;;;;;;0.10;0.10;;;7.40;99.90;;;;;;5082775;28;20132;-83
2024/02/20 06:11:12;;;;;;;0.73;0.73;;;7.40;99.90;;;;;;5097022;28;20060;-84
2024/02/20 06:13:38;;;;;;;0.10;0.10;;;7.50;99.90;;;;;;5089570;28;20483;-85
2024/02/20 06:16:04;;;;;;;0.10;0.10;;;7.70;99.90;;;;;;5088520;28;20054;-86
2024/02/20 06:18:30;;;;;;;0.10;0.10;;;7.70;99.90;;;;;;5087158;28;20032;-86
2024/02/20 06:20:55;;;;;;;0.00;0.00;;;7.70;99.90;;;;;;5100885;28;20039;-85
2024/02/20 06:23:21;;;;;;;0.15;0.15;;;7.60;99.90;;;;;;5083357;28;20139;-85
2024/02/20 06:25:47;;;;;;;0.10;0.10;;;7.60;99.90;;;;;;5085975;28;20070;-85
2024/02/20 06:28:14;;;;;;;0.10;0.10;;;7.40;99.90;;;;;;5086108;28;20697;-84
2024/02/20 06:30:41;;;;;;;2.10;1.45;;;7.30;99.90;;;;;;5086192;28;20024;-84
2024/02/20 06:33:07;;;;;;;0.10;0.10;;;7.30;99.90;;;;;;5086321;28;20047;-85
2024/02/20 06:35:32;;;;;;;0.10;0.10;;;7.20;99.90;;;;;;5086029;28;20036;-84
2024/02/20 06:37:58;;;;;;;0.10;0.10;;;7.10;99.90;;;;;;5087689;28;20042;-83
2024/02/20 06:40:24;;;;;;;0.35;0.35;;;7.10;99.90;;;;;;5086702;28;20036;-81
2024/02/20 06:42:49;;;;;;;0.10;0.10;;;7.00;99.90;;;;;;5085175;28;20036;-81
2024/02/20 06:45:15;;;;;;;0.20;0.20;;;7.20;99.90;;;;;;5086620;28;20050;-79
2024/02/20 06:47:42;;;;;;;0.10;0.10;;;7.20;99.90;;;;;;5076011;28;20046;-81
2024/02/20 06:50:11;;;;;;;0.30;0.20;;;7.20;99.90;;;;;;5081801;28;20089;-81
2024/02/20 06:52:39;;;;;;;0.15;0.15;;;7.30;99.90;;;;;;5078563;28;20024;-81
2024/02/20 06:55:06;;;;;;;0.20;0.20;;;7.30;99.90;;;;;;5079057;28;20032;-82
2024/02/20 06:57:31;;;;;;;1.35;1.30;;;7.30;99.90;;;;;;5077276;28;20499;-82
2024/02/20 06:59:57;;;;;;;0.10;0.10;;;7.40;99.90;;;;;;5076253;28;20064;-82
2024/02/20 07:02:23;;;;;;;0.10;0.10;;;7.50;99.90;;;;;;5078239;28;20031;-81
2024/02/20 07:04:49;;;;;;;0.20;0.20;;;7.50;99.90;;;;;;5083104;28;20032;-81
2024/02/20 07:07:15;;;;;;;0.10;0.10;;;7.60;99.90;;;;;;5079456;28;20033;-81
2024/02/20 07:09:40;;;;;;;0.10;0.10;;;7.70;99.90;;;;;;5075141;28;20033;-82
2024/02/20 07:12:06;;;;;;;0.10;0.10;;;7.70;99.90;;;;;;5074786;28;20498;-80
2024/02/20 07:14:32;;;;;;;0.10;0.10;;;7.80;99.90;;;;;;5086275;28;20558;-79
2024/02/20 07:16:58;;;;;;;0.10;0.10;;;7.80;99.90;;;;;;5071833;28;20024;-81
2024/02/20 07:19:25;;;;;;;0.20;0.20;;;7.80;99.90;;;;;;5071828;28;20047;-82
2024/02/20 07:21:51;;;;;;;0.10;0.10;;;7.80;99.90;;;;;;5074625;28;20037;-81
2024/02/20 07:24:16;;;;;;;0.10;0.10;;;7.80;99.90;;;;;;5076904;28;20036;-82
2024/02/20 07:26:43;;;;;;;0.28;0.28;;;7.80;99.90;;;;;;5074191;28;20032;-83
2024/02/20 07:29:09;;;;;;;0.60;0.45;;;7.70;99.90;;;;;;5087232;28;20036;-83
2024/02/20 07:31:35;;;;;;;0.10;0.10;;;7.80;99.90;;;;;;5084813;28;20028;-84
2024/02/20 07:34:01;;;;;;;0.10;0.10;;;8.00;99.90;;;;;;5086501;28;20038;-84
2024/02/20 07:36:26;;;;;;;0.10;0.10;;;8.20;99.90;;;;;;5084250;28;20095;-84
2024/02/20 07:38:52;;;;;;;0.10;0.10;;;8.20;99.90;;;;;;5069853;28;20032;-84
2024/02/20 07:41:18;;;;;;;0.00;0.00;;;8.20;99.90;;;;;;5079650;28;20035;-84
2024/02/20 07:43:45;;;;;;;0.10;0.10;;;8.30;99.90;;;;;;5086212;28;20028;-84
2024/02/20 07:46:14;;;;;;;0.65;0.65;;;8.20;99.90;;;;;;5083119;28;20043;-84
2024/02/20 07:48:42;;;;;;;0.10;0.10;;;8.10;99.90;;;;;;5078734;28;20029;-83
2024/02/20 07:51:09;;;;;;;0.30;0.30;;;8.10;99.90;;;;;;5082704;28;20111;-84
2024/02/20 07:53:35;;;;;;;;;;;8.30;99.90;;;;;;5084300;28;20036;-84
2024/02/20 07:56:05;;;;;;;0.10;0.10;;;8.10;99.90;;;;;;5086164;28;19916;-84
2024/02/20 07:58:31;;;;;;;0.00;0.00;;;8.20;99.90;;;;;;5076908;28;20039;-84
2024/02/20 08:00:57;;;;;;;0.10;0.10;;;8.50;99.90;;;;;;5083675;28;20035;-82
2024/02/20 08:03:25;;;;;;;0.10;0.10;;;8.40;99.90;;;;;;5078930;28;20028;-84
2024/02/20 08:05:50;;;;;;;0.10;0.10;;;8.30;99.90;;;;;;5083761;28;20055;-83
2024/02/20 08:08:17;;;;;;;0.10;0.10;;;8.50;99.90;;;;;;5084689;28;20051;-83
2024/02/20 08:10:43;;;;;;;0.20;0.20;;;8.80;99.90;;;;;;5077528;28;20051;-84
2024/02/20 08:13:09;;;;;;;0.10;0.10;;;8.50;99.90;;;;;;5080603;28;20112;-86
2024/02/20 08:15:35;;;;;;;0.10;0.10;;;8.60;99.90;;;;;;5085734;28;20036;-84
2024/02/20 08:18:01;;;;;;;0.10;0.10;;;8.80;99.90;;;;;;5082001;28;20047;-84
2024/02/20 08:20:26;;;;;;;0.10;0.10;;;8.60;99.90;;;;;;5080650;28;20054;-85
2024/02/20 08:22:52;;;;;;;0.30;0.30;;;8.90;99.90;;;;;;5083591;28;20100;-84
2024/02/20 08:25:18;;;;;;;0.10;0.10;;;9.00;99.90;;;;;;5085343;28;20024;-85
2024/02/20 08:28:22;;;;;;;0.25;0.25;;;9.10;99.90;;;;;;5071429;28;20099;-86
2024/02/20 08:30:47;;;;;;;0.10;0.10;;;9.40;99.90;;;;;;5071486;28;20055;-84
2024/02/20 08:33:14;;;;;;;0.00;0.00;;;10.00;99.90;;;;;;5086910;28;20503;-86
2024/02/20 08:35:43;;;;;;;0.00;0.00;;;10.10;99.90;;;;;;5080149;28;20036;-84
2024/02/20 08:38:09;;;;;;;0.30;0.30;;;10.60;99.90;;;;;;5075220;28;20023;-85
2024/02/20 08:40:34;;;;;;;0.10;0.10;;;11.60;99.90;;;;;;5083125;28;20555;-87
2024/02/20 08:43:00;;;;;;;0.10;0.10;;;12.00;96.80;;;;;;5080853;28;20032;-86
2024/02/20 08:45:28;;;;;;;0.00;0.00;;;11.50;96.50;;;;;;5072038;28;20112;-86
2024/02/20 08:47:58;;;;;;;0.10;0.10;;;11.80;96.50;;;;;;5069406;28;20033;-83
2024/02/20 08:50:32;;;;;;;0.00;0.00;;;12.40;94.50;;;;;;5075458;28;20044;-84
2024/02/20 08:53:05;;;;;;;0.10;0.10;;;13.50;94.60;;;;;;5073411;28;20799;-84
2024/02/20 08:55:33;;;;;;;0.00;0.00;;;13.90;91.50;;;;;;5071960;28;20051;-84
2024/02/20 08:58:11;;;;;;;0.15;0.15;;;13.00;92.00;;;;;;5072302;28;20408;-85
2024/02/20 09:01:26;;;;;;;0.00;0.00;;;11.70;94.60;;;;;;5074269;28;20032;-84
2024/02/20 09:11:42;;;;;;;;;;;;;;;;;;;;;
2024/02/20 09:14:10;;;;;;;1.77;1.67;;;13.10;91.40;;;;;;5034237;28;20037;-84
2024/02/20 09:16:41;;;;;;;0.15;0.15;;;13.50;92.20;;;;;;5049387;28;20062;-84
2024/02/20 09:19:07;;;;;;;0.00;0.00;;;14.70;90.60;;;;;;5037540;28;20184;-83
2024/02/20 09:21:51;;;;;;;;;;;;;;;;;;;;;
2024/02/20 09:24:27;;;;;;;3.10;0.63;;;14.10;89.10;;;;;;5047551;28;20037;-85
2024/02/20 09:26:53;;;;;;;0.00;0.00;;;14.90;89.10;;;;;;5041421;28;20033;-84
2024/02/20 09:32:49;;;;;;;0.08;0.08;;;15.30;85.60;;;;;;4965828;28;20049;-84
2024/02/20 09:35:24;;;;;;;0.30;0.30;;;14.70;85.20;;;;;;4953256;28;20023;-85
2024/02/20 09:42:27;;;;;;;0.13;0.13;;;13.60;87.40;;;;;;4964495;28;20023;-84
2024/02/20 09:44:56;;;;;;;0.00;0.00;;;15.20;85.00;;;;;;4996778;28;20417;-84
2024/02/20 09:54:49;;;;;;;;;;;;;;;;;;;;;
2024/02/20 10:04:35;;;;;;;0.65;0.65;;;13.10;89.60;;;;;;4948874;28;20047;-82
2024/02/20 10:07:04;;;;;;;0.00;0.00;;;13.40;84.80;;;;;;5007609;28;20123;-83
2024/02/20 10:09:57;;;;;;;0.00;0.00;;;14.00;86.40;;;;;;5044374;28;20033;-84
2024/02/20 10:12:30;;;;;;;0.10;0.10;;;13.60;84.30;;;;;;5078755;28;20044;-83
2024/02/20 10:15:15;;;;;;;0.00;0.00;;;12.80;84.30;;;;;;5092669;28;20039;-83
2024/02/20 10:17:41;;;;;;;0.10;0.10;;;13.80;86.10;;;;;;5088532;28;20123;-83
2024/02/20 10:20:12;;;;;;;0.00;0.00;;;13.80;80.70;;;;;;5085850;28;20062;-83
2024/02/20 10:22:42;;;;;;;0.10;0.10;;;13.30;81.60;;;;;;5089217;28;20025;-82
2024/02/20 10:25:12;;;;;;;0.00;0.00;;;13.40;82.80;;;;;;5092382;28;20039;-83
2024/02/20 10:27:38;;;;;;;0.10;0.10;;;13.50;81.50;;;;;;5074160;28;20056;-83
2024/02/20 10:30:06;;;;;;;0.10;0.10;;;14.10;79.70;;;;;;5083580;28;20403;-83
2024/02/20 10:32:36;;;;;;;0.00;0.00;;;14.50;77.50;;;;;;5081942;28;20109;-82
2024/02/20 10:35:11;;;;;;;0.00;0.00;;;14.80;77.40;;;;;;5074795;28;20043;-82
2024/02/20 10:37:38;;;;;;;0.00;0.00;;;15.20;76.90;;;;;;5073880;28;20044;-82
2024/02/20 10:40:08;;;;;;;0.10;0.10;;;14.40;75.20;;;;;;5085966;28;20036;-83
2024/02/20 10:42:35;;;;;;;0.00;0.00;;;14.20;78.50;;;;;;5071200;28;20097;-82
2024/02/20 10:45:11;;;;;;;0.25;0.25;;;13.50;78.70;;;;;;5078277;28;20029;-82
2024/02/20 10:47:47;;;;;;;0.00;0.00;;;14.10;79.70;;;;;;5083305;28;20028;-82
2024/02/20 10:50:14;;;;;;;0.10;0.10;;;13.90;79.30;;;;;;5077213;28;20409;-82
2024/02/20 10:52:41;;;;;;;0.00;0.00;;;13.30;78.20;;;;;;5072758;28;20031;-83
2024/02/20 10:55:10;;;;;;;0.00;0.00;;;12.60;78.60;;;;;;5079227;28;20465;-83
2024/02/20 10:57:41;;;;;;;0.00;0.00;;;12.50;81.10;;;;;;5088087;28;20702;-83
2024/02/20 11:00:14;;;;;;;0.00;0.00;;;12.40;81.30;;;;;;5075533;28;20741;-83
2024/02/20 11:02:49;;;;;;;0.00;0.00;;;12.70;79.50;;;;;;5082255;28;20105;-83
2024/02/20 11:05:17;;;;;;;0.57;0.57;;;12.70;79.10;;;;;;5080013;28;20024;-83
2024/02/20 11:07:45;;;;;;;0.00;0.00;;;12.70;78.80;;;;;;5083347;28;20055;-83
2024/02/20 11:10:33;;;;;;;0.10;0.10;;;13.00;77.30;;;;;;5082506;28;20107;-82
2024/02/20 11:12:58;;;;;;;0.03;0.03;;;13.60;76.40;;;;;;5083965;28;20082;-83
2024/02/20 11:15:27;;;;;;;0.00;0.00;;;14.50;77.90;;;;;;5091463;28;20023;-83
2024/02/20 11:18:24;;;;;;;0.00;0.00;;;14.60;76.30;;;;;;5088066;28;20904;-84
2024/02/20 11:21:00;;;;;;;0.00;0.00;;;14.70;75.80;;;;;;5085201;28;20407;-82
2024/02/20 11:23:35;;;;;;;;;;;14.20;76.40;;;;;;5088162;28;20027;-84
2024/02/20 11:26:25;;;;;;;0.00;0.00;;;13.90;76.20;;;;;;5088740;28;19943;-83
2024/02/20 11:28:53;;;;;;;0.00;0.00;;;13.20;75.20;;;;;;5076030;28;20028;-83
2024/02/20 11:31:29;;;;;;;0.00;0.00;;;12.70;75.30;;;;;;5080014;28;20031;-84
2024/02/20 11:34:00;;;;;;;0.00;0.00;;;12.60;74.40;;;;;;5075824;28;20043;-84
2024/02/20 11:37:10;;;;;;;0.00;0.00;;;12.40;75.70;;;;;;5080379;28;20420;-83
2024/02/20 11:39:39;;;;;;;0.05;0.05;;;12.30;78.00;;;;;;5084990;28;20035;-84
2024/02/20 11:42:25;;;;;;;;;;;;;;;;;;;;;
2024/02/20 11:45:01;;;;;;;0.00;0.00;;;12.50;80.50;;;;;;5074959;28;20818;-86
2024/02/20 11:51:23;;;;;;;0.10;0.10;;;13.50;77.10;;;;;;5078067;28;20264;-84
2024/02/20 11:53:54;;;;;;;0.10;0.10;;;13.50;76.60;;;;;;5073368;28;20029;-83
2024/02/20 11:56:22;;;;;;;0.00;0.00;;;13.60;75.00;;;;;;5079164;28;20059;-83
2024/02/20 11:59:38;;;;;;;0.10;0.10;;;13.70;75.40;;;;;;5078854;28;20046;-84
2024/02/20 12:02:34;;;;;;;0.10;0.10;;;13.40;74.00;;;;;;5059816;28;20551;-84
2024/02/20 12:08:43;;;;;;;0.00;0.00;;;12.50;77.60;;;;;;5057112;28;20035;-83
2024/02/20 12:11:59;;;;;;;;;;;;;;;;;;;;;
2024/02/20 12:14:41;;;;;;;0.00;0.00;;;13.50;78.20;;;;;;5077389;28;20539;-84
2024/02/20 12:18:13;;;;;;;0.10;0.10;;;13.50;75.10;;;;;;5081153;28;20031;-84
2024/02/20 12:20:39;;;;;;;0.25;0.25;;;13.80;73.90;;;;;;5083477;28;20089;-83
2024/02/20 12:23:23;;;;;;;0.00;0.00;;;13.20;73.50;;;;;;5092434;28;20142;-84
2024/02/20 12:25:58;;;;;;;0.10;0.10;;;13.10;75.00;;;;;;5079877;28;20530;-83
2024/02/20 12:29:22;;;;;;;1.15;1.10;;;12.90;73.70;;;;;;5068784;28;20025;-84
2024/02/20 12:31:48;;;;;;;0.10;0.10;;;13.00;73.20;;;;;;5065239;28;20036;-84
2024/02/20 12:34:37;;;;;;;0.00;0.00;;;13.00;72.30;;;;;;5083458;28;20601;-84
2024/02/20 12:37:12;;;;;;;0.05;0.05;;;13.00;74.20;;;;;;5073457;28;20060;-83
2024/02/20 12:43:14;;;;;;;0.00;0.00;;;13.30;71.80;;;;;;5039920;28;20020;-84
2024/02/20 12:45:44;;;;;;;0.00;0.00;;;13.60;71.80;;;;;;5030524;28;20079;-84
2024/02/20 12:55:47;;;;;;;1.65;0.65;;;13.20;69.40;;;;;;5021514;28;20298;-84
2024/02/20 12:58:13;;;;;;;1.08;0.55;;;13.50;71.20;;;;;;5018253;28;20133;-83
2024/02/20 13:01:21;;;;;;;0.00;0.00;;;13.50;70.20;;;;;;5016737;28;20596;-84
2024/02/20 13:03:54;;;;;;;0.00;0.00;;;13.20;67.80;;;;;;5076447;28;20068;-83
2024/02/20 13:07:12;;;;;;;0.00;0.00;;;13.20;67.10;;;;;;5077632;28;20031;-84
2024/02/20 13:10:02;;;;;;;0.10;0.10;;;13.10;67.40;;;;;;5059708;28;20118;-84
2024/02/20 13:20:01;;;;;;;0.00;0.00;;;13.50;71.50;;;;;;5057009;28;20037;-84
2024/02/20 13:22:53;;;;;;;0.00;0.00;;;13.80;73.50;;;;;;5065189;28;20560;-83
2024/02/20 13:25:18;;;;;;;0.08;0.08;;;13.90;73.20;;;;;;5078007;28;20032;-83
2024/02/20 13:31:31;;;;;;;0.00;0.00;;;13.30;73.00;;;;;;5037673;28;20532;-84
2024/02/20 13:34:00;;;;;;;0.22;0.22;;;13.30;71.50;;;;;;5025461;28;20769;-84
2024/02/20 13:36:34;;;;;;;0.05;0.05;;;13.30;72.60;;;;;;5082421;28;20474;-84
2024/02/20 13:42:32;;;;;;;0.00;0.00;;;13.40;68.70;;;;;;5067869;28;20040;-85
2024/02/20 13:46:05;;;;;;;0.00;0.00;;;13.50;72.90;;;;;;5074572;28;20053;-84
2024/02/20 13:48:35;;;;;;;0.10;0.10;;;13.40;73.00;;;;;;5074784;28;20037;-84
2024/02/20 13:51:01;;;;;;;0.15;0.15;;;13.60;74.40;;;;;;5075968;28;20031;-83
2024/02/20 13:53:30;;;;;;;0.10;0.10;;;13.60;73.30;;;;;;5074127;28;20037;-84
2024/02/20 13:56:01;;;;;;;0.00;0.00;;;13.70;73.10;;;;;;5077476;28;20068;-84
2024/02/20 13:58:58;;;;;;;0.00;0.00;;;13.70;72.60;;;;;;5075665;28;20033;-84
2024/02/20 14:01:23;;;;;;;;;;;13.60;71.20;;;;;;5068222;28;20033;-84
2024/02/20 14:03:49;;;;;;;0.00;0.00;;;13.60;72.30;;;;;;5079703;28;20337;-83
2024/02/20 14:06:15;;;;;;;0.00;0.00;;;13.70;71.90;;;;;;5080652;28;20043;-83
2024/02/20 14:09:11;;;;;;;0.03;0.03;;;13.80;71.20;;;;;;5088304;28;20085;-85
2024/02/20 14:12:00;;;;;;;0.00;0.00;;;13.40;67.60;;;;;;5081277;28;20031;-85
2024/02/20 14:14:33;;;;;;;0.10;0.10;;;13.50;69.40;;;;;;5081353;28;20032;-83
2024/02/20 14:17:05;;;;;;;0.10;0.10;;;13.20;72.00;;;;;;5083686;28;20080;-83